createdAt,value
2023-03-29T00:01:11.996Z,95018.47
2023-03-29T00:03:59.266Z,95020.00
2023-03-29T00:06:27.504Z,95034.13
2023-03-29T00:08:53.897Z,95028.28
2023-03-29T00:11:20.311Z,95019.75
2023-03-29T00:13:46.692Z,95022.22
2023-03-29T00:16:13.064Z,95028.88
2023-03-29T00:18:39.476Z,95018.06
2023-03-29T00:21:05.861Z,95018.41
2023-03-29T00:23:32.279Z,95007.03
2023-03-29T00:25:58.670Z,95022.50
2023-03-29T00:28:25.089Z,95022.69
2023-03-29T00:30:51.487Z,95018.19
2023-03-29T00:33:17.868Z,95014.00
2023-03-29T00:35:44.301Z,95019.88
2023-03-29T00:38:10.715Z,95030.75
2023-03-29T00:40:37.118Z,95017.22
2023-03-29T00:43:03.542Z,95016.28
2023-03-29T00:45:29.959Z,94998.44
2023-03-29T00:47:56.461Z,94992.56
2023-03-29T00:50:22.895Z,94993.22
2023-03-29T00:52:49.293Z,94998.53
2023-03-29T00:55:15.703Z,94990.53
2023-03-29T00:57:42.123Z,94996.53
2023-03-29T01:00:08.539Z,94993.94
2023-03-29T01:02:35.180Z,95007.31
2023-03-29T01:05:01.632Z,95009.47
2023-03-29T01:07:28.010Z,95008.84
2023-03-29T01:09:54.397Z,95006.13
2023-03-29T01:12:20.796Z,95003.94
2023-03-29T01:14:47.203Z,95004.47
2023-03-29T01:17:13.606Z,94996.75
2023-03-29T01:19:39.999Z,94991.09
2023-03-29T01:22:06.364Z,94992.81
2023-03-29T01:24:32.759Z,94985.22
2023-03-29T01:26:59.144Z,94990.50
2023-03-29T01:29:25.529Z,94990.22
2023-03-29T01:31:51.990Z,94965.81
2023-03-29T01:34:18.392Z,94967.28
2023-03-29T01:36:44.833Z,94968.63
2023-03-29T01:39:11.219Z,94963.81
2023-03-29T01:41:37.614Z,94970.47
2023-03-29T01:44:04.024Z,94968.63
2023-03-29T01:46:30.448Z,94973.94
2023-03-29T01:48:56.939Z,94966.50
2023-03-29T01:51:23.347Z,94950.53
2023-03-29T01:53:49.746Z,94946.09
2023-03-29T01:56:16.146Z,94944.63
2023-03-29T01:58:42.520Z,94930.47
2023-03-29T02:01:09.114Z,94935.41
2023-03-29T02:03:35.633Z,94934.47
2023-03-29T02:06:02.104Z,94935.06
2023-03-29T02:08:28.521Z,94946.78
2023-03-29T02:10:54.957Z,94942.22
2023-03-29T02:13:21.374Z,94941.00
2023-03-29T02:15:47.829Z,94936.59
2023-03-29T02:18:14.221Z,94930.50
2023-03-29T02:20:40.659Z,94924.91
2023-03-29T02:23:07.088Z,94938.75
2023-03-29T02:25:33.491Z,94926.22
2023-03-29T02:27:59.888Z,94921.47
2023-03-29T02:30:26.281Z,94909.97
2023-03-29T02:32:52.735Z,94906.34
2023-03-29T02:35:19.131Z,94898.66
2023-03-29T02:37:45.509Z,94899.84
2023-03-29T02:40:11.947Z,94899.03
2023-03-29T02:42:38.321Z,94900.34
2023-03-29T02:45:05.961Z,94905.81
2023-03-29T02:47:32.429Z,94907.81
2023-03-29T02:49:58.845Z,94901.19
2023-03-29T02:52:25.221Z,94906.66
2023-03-29T02:54:51.595Z,94913.91
2023-03-29T02:57:18.034Z,94914.59
2023-03-29T02:59:44.512Z,94907.84
2023-03-29T03:02:10.942Z,94907.84
2023-03-29T03:04:37.352Z,94900.75
2023-03-29T03:07:03.743Z,94902.41
2023-03-29T03:09:30.110Z,94905.66
2023-03-29T03:11:56.486Z,94891.28
2023-03-29T03:14:22.952Z,94912.13
2023-03-29T03:16:49.571Z,94912.97
2023-03-29T03:19:16.035Z,94911.94
2023-03-29T03:21:42.447Z,94902.19
2023-03-29T03:24:08.822Z,94898.19
2023-03-29T03:26:35.221Z,94901.50
2023-03-29T03:29:01.606Z,94920.66
2023-03-29T03:31:28.032Z,94920.38
2023-03-29T03:33:54.474Z,94927.97
2023-03-29T03:36:20.863Z,94918.38
2023-03-29T03:38:47.230Z,94919.03
2023-03-29T03:41:13.674Z,94921.50
2023-03-29T03:43:40.069Z,94923.66
2023-03-29T03:46:06.493Z,94916.91
2023-03-29T03:48:32.981Z,94919.72
2023-03-29T03:50:59.595Z,94918.72
2023-03-29T03:53:26.064Z,94923.19
2023-03-29T03:55:52.451Z,94908.97
2023-03-29T03:58:18.868Z,94915.19
2023-03-29T04:00:45.282Z,94917.34
2023-03-29T04:03:11.783Z,94926.59
2023-03-29T04:05:38.305Z,94902.84
2023-03-29T04:08:04.683Z,94903.34
2023-03-29T04:10:31.087Z,94906.44
2023-03-29T04:12:57.503Z,94903.41
2023-03-29T04:15:24.112Z,94898.78
2023-03-29T04:17:50.673Z,94906.91
2023-03-29T04:20:17.101Z,94912.41
2023-03-29T04:22:43.534Z,94905.66
2023-03-29T04:25:09.920Z,94909.44
2023-03-29T04:27:36.296Z,94917.22
2023-03-29T04:30:02.696Z,94911.56
2023-03-29T04:32:29.217Z,94910.44
2023-03-29T04:34:55.656Z,94905.97
2023-03-29T04:37:22.062Z,94900.22
2023-03-29T04:39:48.464Z,94904.88
2023-03-29T04:42:14.862Z,94902.38
2023-03-29T04:44:41.316Z,94893.13
2023-03-29T04:47:07.765Z,94899.41
2023-03-29T04:49:34.172Z,94897.59
2023-03-29T04:52:00.554Z,94909.13
2023-03-29T04:54:26.962Z,94908.47
2023-03-29T04:56:53.395Z,94916.22
2023-03-29T04:59:19.801Z,94909.63
2023-03-29T05:01:46.231Z,94920.84
2023-03-29T05:04:12.980Z,94912.25
2023-03-29T05:06:39.459Z,94908.47
2023-03-29T05:09:05.898Z,94908.13
2023-03-29T05:11:32.295Z,94907.31
2023-03-29T05:13:58.720Z,94905.16
2023-03-29T05:16:25.199Z,94912.09
2023-03-29T05:18:51.647Z,94910.75
2023-03-29T05:21:18.032Z,94919.66
2023-03-29T05:23:44.526Z,94917.53
2023-03-29T05:26:10.916Z,94924.28
2023-03-29T05:28:37.300Z,94921.81
2023-03-29T05:31:03.866Z,94918.50
2023-03-29T05:33:30.365Z,94912.56
2023-03-29T05:35:56.756Z,94914.88
2023-03-29T05:38:23.155Z,94918.53
2023-03-29T05:40:49.592Z,94920.34
2023-03-29T05:43:15.974Z,94916.06
2023-03-29T05:45:42.431Z,94906.81
2023-03-29T05:48:08.888Z,94902.03
2023-03-29T05:50:35.322Z,94914.03
2023-03-29T05:53:01.725Z,94913.72
2023-03-29T05:55:28.150Z,94915.91
2023-03-29T05:57:54.572Z,94921.84
2023-03-29T06:00:20.966Z,94932.25
2023-03-29T06:02:47.486Z,94928.78
2023-03-29T06:05:13.940Z,94926.31
2023-03-29T06:07:40.329Z,94939.38
2023-03-29T06:10:06.766Z,94935.84
2023-03-29T06:12:33.199Z,94935.34
2023-03-29T06:14:59.640Z,94932.75
2023-03-29T06:17:26.074Z,94928.66
2023-03-29T06:19:52.613Z,94929.63
2023-03-29T06:22:19.027Z,94928.47
2023-03-29T06:24:45.409Z,94938.53
2023-03-29T06:27:11.786Z,94937.22
2023-03-29T06:29:38.273Z,94931.28
2023-03-29T06:32:04.698Z,94947.47
2023-03-29T06:34:31.080Z,94934.25
2023-03-29T06:36:57.496Z,94944.47
2023-03-29T06:39:23.893Z,94947.78
2023-03-29T06:41:50.268Z,94938.53
2023-03-29T06:44:16.646Z,94939.34
2023-03-29T06:46:43.217Z,94944.63
2023-03-29T06:49:09.653Z,94933.91
2023-03-29T06:51:36.063Z,94934.72
2023-03-29T06:54:02.467Z,94926.44
2023-03-29T06:56:28.860Z,94926.97
2023-03-29T06:58:55.263Z,94928.41
2023-03-29T07:01:21.797Z,94942.25
2023-03-29T07:03:48.388Z,94928.31
2023-03-29T07:06:14.825Z,94932.72
2023-03-29T07:08:41.393Z,94935.47
2023-03-29T07:11:07.768Z,94946.84
2023-03-29T07:13:34.138Z,94942.00
2023-03-29T07:16:00.546Z,94951.91
2023-03-29T07:18:26.977Z,94946.63
2023-03-29T07:20:53.363Z,94947.94
2023-03-29T07:23:19.748Z,94941.94
2023-03-29T07:25:46.137Z,94947.81
2023-03-29T07:28:12.562Z,94955.59
2023-03-29T07:30:38.989Z,94951.59
2023-03-29T07:33:05.511Z,94955.59
2023-03-29T07:35:32.015Z,94959.88
2023-03-29T07:37:58.462Z,94947.75
2023-03-29T07:40:24.892Z,94954.91
2023-03-29T07:42:51.315Z,94956.84
2023-03-29T07:45:17.723Z,94961.88
2023-03-29T07:47:44.147Z,94968.69
2023-03-29T07:50:10.582Z,94970.78
2023-03-29T07:52:37.005Z,94962.81
2023-03-29T07:55:03.413Z,94971.06
2023-03-29T07:57:29.814Z,94973.63
2023-03-29T07:59:56.231Z,94978.59
2023-03-29T08:02:22.635Z,94972.44
2023-03-29T08:04:49.047Z,94974.03
2023-03-29T08:07:17.050Z,94986.28
2023-03-29T08:09:45.247Z,94974.81
2023-03-29T08:12:11.649Z,94974.16
2023-03-29T08:14:38.085Z,94984.72
2023-03-29T08:17:04.594Z,94970.69
2023-03-29T08:19:31.022Z,94971.34
2023-03-29T08:21:57.410Z,94972.22
2023-03-29T08:24:23.804Z,94964.66
2023-03-29T08:26:50.173Z,94963.56
2023-03-29T08:29:16.573Z,94952.13
2023-03-29T08:31:43.000Z,94948.13
2023-03-29T08:34:09.428Z,94954.28
2023-03-29T08:36:35.828Z,94952.06
2023-03-29T08:39:02.211Z,94955.38
2023-03-29T08:41:28.611Z,94948.25
2023-03-29T08:43:55.012Z,94958.88
2023-03-29T08:46:21.486Z,94954.78
2023-03-29T08:48:47.888Z,94958.28
2023-03-29T08:51:14.282Z,94953.50
2023-03-29T08:53:40.677Z,94954.31
2023-03-29T08:56:07.061Z,94964.53
2023-03-29T08:58:33.443Z,94959.91
2023-03-29T09:01:00.118Z,94961.06
2023-03-29T09:03:26.884Z,94963.03
2023-03-29T09:05:53.336Z,94966.78
2023-03-29T09:08:19.789Z,94973.25
2023-03-29T09:10:46.287Z,94977.09
2023-03-29T09:13:12.776Z,94965.75
2023-03-29T09:15:39.782Z,94968.53
2023-03-29T09:18:06.238Z,94962.56
2023-03-29T09:20:32.722Z,94961.88
2023-03-29T09:22:59.115Z,94958.53
2023-03-29T09:25:25.519Z,94952.25
2023-03-29T09:27:51.913Z,94954.50
2023-03-29T09:30:18.358Z,94953.06
2023-03-29T09:32:44.876Z,94949.78
2023-03-29T09:35:11.272Z,94952.94
2023-03-29T09:37:37.706Z,94949.91
2023-03-29T09:40:05.217Z,94951.56
2023-03-29T09:42:31.782Z,94954.66
2023-03-29T09:44:58.195Z,94950.53
2023-03-29T09:47:24.646Z,94950.16
2023-03-29T09:49:51.039Z,94956.16
2023-03-29T09:52:17.428Z,94958.84
2023-03-29T09:54:43.848Z,94958.22
2023-03-29T09:57:10.306Z,94950.25
2023-03-29T09:59:36.713Z,94943.84
2023-03-29T10:02:03.134Z,94948.59
2023-03-29T10:04:29.600Z,94950.00
2023-03-29T10:06:56.079Z,94938.94
2023-03-29T10:09:22.468Z,94939.56
2023-03-29T10:11:48.879Z,94936.69
2023-03-29T10:14:15.289Z,94931.56
2023-03-29T10:16:41.842Z,94925.59
2023-03-29T10:19:08.324Z,94935.66
2023-03-29T10:21:34.752Z,94934.63
2023-03-29T10:24:01.126Z,94926.00
2023-03-29T10:26:27.529Z,94921.66
2023-03-29T10:28:53.924Z,94913.06
2023-03-29T10:31:20.357Z,94919.22
2023-03-29T10:33:46.771Z,94917.94
2023-03-29T10:36:13.231Z,94913.16
2023-03-29T10:38:39.662Z,94910.06
2023-03-29T10:41:06.053Z,94900.00
2023-03-29T10:43:32.503Z,94898.34
2023-03-29T10:45:59.036Z,94893.41
2023-03-29T10:48:25.428Z,94905.81
2023-03-29T10:50:51.827Z,94911.31
2023-03-29T10:53:18.257Z,94904.97
2023-03-29T10:55:44.639Z,94897.53
2023-03-29T10:58:11.054Z,94890.41
2023-03-29T11:00:37.479Z,94885.91
2023-03-29T11:03:03.954Z,94886.91
2023-03-29T11:05:30.446Z,94883.63
2023-03-29T11:07:56.834Z,94884.19
2023-03-29T11:10:23.237Z,94883.78
2023-03-29T11:12:49.658Z,94884.41
2023-03-29T11:15:16.048Z,94904.72
2023-03-29T11:17:42.487Z,94893.81
2023-03-29T11:20:08.871Z,94895.19
2023-03-29T11:22:35.276Z,94892.19
2023-03-29T11:25:01.665Z,94898.19
2023-03-29T11:27:28.079Z,94901.41
2023-03-29T11:29:54.548Z,94907.13
2023-03-29T11:32:20.999Z,94915.22
2023-03-29T11:34:47.421Z,94909.41
2023-03-29T11:37:13.814Z,94912.81
2023-03-29T11:39:40.196Z,94895.56
2023-03-29T11:42:06.618Z,94904.44
2023-03-29T11:44:33.101Z,94907.84
2023-03-29T11:46:59.524Z,94913.84
2023-03-29T11:49:25.936Z,94906.34
2023-03-29T11:51:52.343Z,94900.13
2023-03-29T11:54:18.736Z,94914.53
2023-03-29T11:56:45.185Z,94905.84
2023-03-29T11:59:11.646Z,94906.34
2023-03-29T12:01:38.120Z,94903.28
2023-03-29T12:04:04.611Z,94898.09
2023-03-29T12:06:31.116Z,94903.25
2023-03-29T12:08:57.514Z,94911.84
2023-03-29T12:11:23.918Z,94907.31
2023-03-29T12:13:50.321Z,94901.19
2023-03-29T12:16:16.767Z,94915.91
2023-03-29T12:18:43.211Z,94907.34
2023-03-29T12:21:09.642Z,94900.34
2023-03-29T12:23:36.049Z,94899.66
2023-03-29T12:26:02.461Z,94908.69
2023-03-29T12:28:28.881Z,94909.59
2023-03-29T12:30:55.281Z,94906.75
2023-03-29T12:33:21.668Z,94910.38
2023-03-29T12:35:48.119Z,94912.78
2023-03-29T12:38:14.539Z,94903.72
2023-03-29T12:40:40.967Z,94895.09
2023-03-29T12:43:07.365Z,94885.19
2023-03-29T12:45:33.749Z,94877.81
2023-03-29T12:48:00.205Z,94885.53
2023-03-29T12:50:26.661Z,94885.38
2023-03-29T12:52:53.052Z,94890.25
2023-03-29T12:55:19.417Z,94884.97
2023-03-29T12:57:45.839Z,94884.97
2023-03-29T13:00:12.228Z,94885.53
2023-03-29T13:02:38.908Z,94880.94
2023-03-29T13:05:05.600Z,94883.84
2023-03-29T13:07:32.087Z,94879.22
2023-03-29T13:09:58.520Z,94876.31
2023-03-29T13:12:24.921Z,94879.13
2023-03-29T13:14:51.323Z,94878.84
2023-03-29T13:17:19.020Z,94882.00
2023-03-29T13:19:45.715Z,94875.19
2023-03-29T13:22:12.138Z,94877.88
2023-03-29T13:24:38.538Z,94877.94
2023-03-29T13:27:04.914Z,94873.06
2023-03-29T13:29:31.324Z,94879.78
2023-03-29T13:31:57.694Z,94865.16
2023-03-29T13:34:24.078Z,94865.44
2023-03-29T13:36:50.499Z,94867.31
2023-03-29T13:39:16.893Z,94875.78
2023-03-29T13:41:43.295Z,94869.75
2023-03-29T13:44:09.695Z,94862.81
2023-03-29T13:46:36.100Z,94859.66
2023-03-29T13:49:02.534Z,94864.28
2023-03-29T13:51:28.960Z,94863.84
2023-03-29T13:53:55.356Z,94862.50
2023-03-29T13:56:21.742Z,94863.66
2023-03-29T13:58:48.166Z,94861.72
2023-03-29T14:01:14.659Z,94859.88
2023-03-29T14:03:41.221Z,94864.53
2023-03-29T14:06:07.627Z,94853.53
2023-03-29T14:08:35.813Z,94856.22
2023-03-29T14:11:02.407Z,94851.47
2023-03-29T14:13:28.825Z,94846.00
2023-03-29T14:15:55.264Z,94854.34
2023-03-29T14:18:21.655Z,94851.75
2023-03-29T14:20:48.060Z,94847.66
2023-03-29T14:23:16.121Z,94850.66
2023-03-29T14:25:42.665Z,94842.84
2023-03-29T14:28:09.045Z,94840.97
2023-03-29T14:30:35.446Z,94837.53
2023-03-29T14:33:01.878Z,94844.78
2023-03-29T14:35:28.322Z,94840.81
2023-03-29T14:37:54.752Z,94835.38
2023-03-29T14:40:21.228Z,94839.53
2023-03-29T14:42:47.649Z,94840.66
2023-03-29T14:45:14.081Z,94834.31
2023-03-29T14:47:40.512Z,94836.31
2023-03-29T14:50:06.954Z,94832.88
2023-03-29T14:52:33.362Z,94834.41
2023-03-29T14:54:59.794Z,94833.75
2023-03-29T14:57:26.319Z,94832.97
2023-03-29T14:59:52.877Z,94829.25
2023-03-29T15:02:19.322Z,94834.00
2023-03-29T15:04:45.745Z,94825.22
2023-03-29T15:07:12.143Z,94827.63
2023-03-29T15:09:38.541Z,94823.31
2023-03-29T15:12:04.922Z,94819.34
2023-03-29T15:14:31.329Z,94814.66
2023-03-29T15:16:57.705Z,94804.94
2023-03-29T15:19:24.094Z,94808.06
2023-03-29T15:21:50.504Z,94809.63
2023-03-29T15:24:16.912Z,94802.56
2023-03-29T15:26:43.325Z,94806.28
2023-03-29T15:29:09.719Z,94797.94
2023-03-29T15:31:36.181Z,94800.97
2023-03-29T15:34:02.594Z,94800.41
2023-03-29T15:36:28.973Z,94792.59
2023-03-29T15:38:55.366Z,94792.75
2023-03-29T15:41:21.752Z,94792.88
2023-03-29T15:43:48.155Z,94797.63
2023-03-29T15:46:14.632Z,94786.50
2023-03-29T15:48:41.055Z,94790.56
2023-03-29T15:51:07.520Z,94791.78
2023-03-29T15:53:33.978Z,94781.09
2023-03-29T15:56:00.527Z,94785.88
2023-03-29T15:58:27.048Z,94790.00
2023-03-29T16:00:53.505Z,94781.88
2023-03-29T16:03:19.975Z,94782.47
2023-03-29T16:05:46.401Z,94780.69
2023-03-29T16:08:12.787Z,94778.22
2023-03-29T16:10:39.178Z,94781.97
2023-03-29T16:13:05.576Z,94772.19
2023-03-29T16:15:31.967Z,94776.19
2023-03-29T16:17:58.446Z,94770.03
2023-03-29T16:20:24.881Z,94768.22
2023-03-29T16:22:51.330Z,94771.16
2023-03-29T16:25:17.802Z,94765.34
2023-03-29T16:27:44.213Z,94765.53
2023-03-29T16:30:10.620Z,94770.75
2023-03-29T16:32:37.062Z,94767.19
2023-03-29T16:35:03.472Z,94762.88
2023-03-29T16:37:29.865Z,94761.69
2023-03-29T16:39:56.444Z,94763.34
2023-03-29T16:42:22.896Z,94767.25
2023-03-29T16:44:49.303Z,94764.38
2023-03-29T16:47:15.854Z,94756.56
2023-03-29T16:49:43.729Z,94745.03
2023-03-29T16:52:12.123Z,94741.88
2023-03-29T16:54:38.584Z,94739.72
2023-03-29T16:57:05.017Z,94746.06
2023-03-29T16:59:31.426Z,94744.38
2023-03-29T17:01:57.858Z,94752.88
2023-03-29T17:04:24.293Z,94751.53
2023-03-29T17:06:50.757Z,94746.56
2023-03-29T17:09:17.247Z,94747.66
2023-03-29T17:11:43.752Z,94745.56
2023-03-29T17:14:10.433Z,94738.34
2023-03-29T17:16:36.916Z,94739.72
2023-03-29T17:19:03.362Z,94743.84
2023-03-29T17:21:29.800Z,94742.81
2023-03-29T17:23:56.192Z,94752.03
2023-03-29T17:26:22.672Z,94735.63
2023-03-29T17:28:49.095Z,94734.38
2023-03-29T17:31:15.535Z,94742.66
2023-03-29T17:33:41.973Z,94736.28
2023-03-29T17:36:08.812Z,94728.69
2023-03-29T17:38:35.345Z,94718.53
2023-03-29T17:41:01.747Z,94718.53
2023-03-29T17:43:28.155Z,94719.59
2023-03-29T17:45:54.536Z,94734.00
2023-03-29T17:48:21.064Z,94731.13
2023-03-29T17:50:47.563Z,94728.03
2023-03-29T17:53:13.971Z,94734.63
2023-03-29T17:55:40.383Z,94735.47
2023-03-29T17:58:06.790Z,94740.84
2023-03-29T18:00:33.183Z,94733.84
2023-03-29T18:02:59.617Z,94733.28
2023-03-29T18:05:26.051Z,94734.47
2023-03-29T18:07:52.435Z,94737.78
2023-03-29T18:10:18.840Z,94722.16
2023-03-29T18:12:45.205Z,94735.69
2023-03-29T18:15:11.603Z,94740.44
2023-03-29T18:17:38.006Z,94737.34
2023-03-29T18:20:04.417Z,94732.63
2023-03-29T18:22:30.802Z,94735.66
2023-03-29T18:24:57.209Z,94735.09
2023-03-29T18:27:23.681Z,94733.84
2023-03-29T18:29:50.074Z,94734.47
2023-03-29T18:32:16.521Z,94741.50
2023-03-29T18:34:43.040Z,94746.00
2023-03-29T18:37:09.429Z,94754.97
2023-03-29T18:39:35.836Z,94746.97
2023-03-29T18:42:02.245Z,94741.06
2023-03-29T18:44:28.666Z,94748.03
2023-03-29T18:46:55.064Z,94749.66
2023-03-29T18:49:21.454Z,94755.00
2023-03-29T18:51:47.868Z,94751.88
2023-03-29T18:54:14.286Z,94758.47
2023-03-29T18:56:40.737Z,94756.38
2023-03-29T18:59:07.139Z,94756.38
2023-03-29T19:01:33.625Z,94760.06
2023-03-29T19:04:00.109Z,94766.00
2023-03-29T19:06:26.612Z,94771.09
2023-03-29T19:08:52.976Z,94768.69
2023-03-29T19:11:19.408Z,94783.53
2023-03-29T19:13:45.926Z,94787.84
2023-03-29T19:16:12.421Z,94788.66
2023-03-29T19:18:38.824Z,94780.66
2023-03-29T19:21:05.290Z,94793.63
2023-03-29T19:23:31.692Z,94798.94
2023-03-29T19:25:58.101Z,94796.84
2023-03-29T19:28:24.536Z,94804.66
2023-03-29T19:30:50.928Z,94801.69
2023-03-29T19:33:17.407Z,94801.78
2023-03-29T19:35:43.823Z,94805.41
2023-03-29T19:38:10.268Z,94806.25
2023-03-29T19:40:36.675Z,94806.06
2023-03-29T19:43:03.078Z,94816.16
2023-03-29T19:45:29.467Z,94817.19
2023-03-29T19:47:55.896Z,94815.13
2023-03-29T19:50:22.336Z,94819.41
2023-03-29T19:52:48.767Z,94812.59
2023-03-29T19:55:15.175Z,94805.50
2023-03-29T19:57:41.590Z,94800.97
2023-03-29T20:00:08.004Z,94792.53
2023-03-29T20:02:34.405Z,94794.88
2023-03-29T20:05:00.809Z,94792.72
2023-03-29T20:07:27.195Z,94791.50
2023-03-29T20:09:53.655Z,94775.94
2023-03-29T20:12:20.054Z,94762.63
2023-03-29T20:14:46.469Z,94759.75
2023-03-29T20:17:12.880Z,94754.44
2023-03-29T20:19:39.291Z,94760.34
2023-03-29T20:22:05.732Z,94756.25
2023-03-29T20:24:32.128Z,94756.63
2023-03-29T20:26:58.498Z,94754.69
2023-03-29T20:29:24.932Z,94749.16
2023-03-29T20:31:51.379Z,94737.59
2023-03-29T20:34:17.801Z,94742.53
2023-03-29T20:36:44.212Z,94736.66
2023-03-29T20:39:10.583Z,94738.31
2023-03-29T20:41:37.009Z,94735.31
2023-03-29T20:44:03.405Z,94735.75
2023-03-29T20:46:29.851Z,94737.78
2023-03-29T20:48:56.294Z,94728.38
2023-03-29T20:51:22.699Z,94715.44
2023-03-29T20:53:49.073Z,94714.22
2023-03-29T20:56:15.442Z,94719.09
2023-03-29T20:58:41.906Z,94733.25
2023-03-29T21:01:08.495Z,94730.38
2023-03-29T21:03:34.966Z,94720.97
2023-03-29T21:06:01.477Z,94726.53
2023-03-29T21:08:27.892Z,94718.13
2023-03-29T21:10:54.359Z,94721.41
2023-03-29T21:13:20.776Z,94727.16
2023-03-29T21:15:47.283Z,94724.50
2023-03-29T21:18:13.756Z,94726.53
2023-03-29T21:20:40.145Z,94724.25
2023-03-29T21:23:06.565Z,94721.66
2023-03-29T21:25:32.989Z,94717.16
2023-03-29T21:27:59.664Z,94709.03
2023-03-29T21:30:26.079Z,94722.91
2023-03-29T21:32:52.560Z,94715.28
2023-03-29T21:35:19.054Z,94714.50
2023-03-29T21:37:45.454Z,94709.63
2023-03-29T21:40:11.831Z,94707.84
2023-03-29T21:42:38.223Z,94701.94
2023-03-29T21:45:04.629Z,94697.63
2023-03-29T21:47:31.111Z,94703.16
2023-03-29T21:49:57.544Z,94718.53
2023-03-29T21:52:23.985Z,94716.59
2023-03-29T21:54:50.382Z,94705.84
2023-03-29T21:57:16.826Z,94690.09
2023-03-29T21:59:43.274Z,94707.31
2023-03-29T22:02:09.716Z,94709.19
2023-03-29T22:04:37.411Z,94703.66
2023-03-29T22:07:04.215Z,94712.09
2023-03-29T22:09:30.633Z,94706.41
2023-03-29T22:11:57.033Z,94709.09
2023-03-29T22:14:23.433Z,94707.03
2023-03-29T22:16:49.890Z,94707.06
2023-03-29T22:19:16.372Z,94701.16
2023-03-29T22:21:42.793Z,94700.94
2023-03-29T22:24:09.202Z,94694.16
2023-03-29T22:26:35.638Z,94692.91
2023-03-29T22:29:02.089Z,94698.66
2023-03-29T22:31:28.545Z,94701.41
2023-03-29T22:33:55.018Z,94702.22
2023-03-29T22:36:21.435Z,94697.53
2023-03-29T22:38:47.841Z,94701.63
2023-03-29T22:41:14.233Z,94703.91
2023-03-29T22:43:40.625Z,94694.53
2023-03-29T22:46:07.054Z,94696.56
2023-03-29T22:48:33.491Z,94695.31
2023-03-29T22:50:59.915Z,94689.50
2023-03-29T22:53:26.301Z,94681.38
2023-03-29T22:55:52.744Z,94667.41
2023-03-29T22:58:19.128Z,94673.03
2023-03-29T23:00:45.504Z,94668.28
2023-03-29T23:03:11.890Z,94659.41
2023-03-29T23:05:38.288Z,94650.31
2023-03-29T23:08:04.729Z,94630.34
2023-03-29T23:10:31.144Z,94635.75
2023-03-29T23:12:57.532Z,94642.97
2023-03-29T23:15:24.047Z,94633.22
2023-03-29T23:17:50.507Z,94630.16
2023-03-29T23:20:16.927Z,94627.91
2023-03-29T23:22:43.346Z,94630.47
2023-03-29T23:25:09.729Z,94629.38
2023-03-29T23:27:36.146Z,94636.00
2023-03-29T23:30:02.558Z,94638.69
2023-03-29T23:32:28.980Z,94632.22
2023-03-29T23:34:55.384Z,94624.47
2023-03-29T23:37:21.777Z,94637.22
2023-03-29T23:39:48.151Z,94631.09
2023-03-29T23:42:14.546Z,94613.69
2023-03-29T23:44:40.961Z,94617.75
2023-03-29T23:47:07.442Z,94614.69
2023-03-29T23:49:33.945Z,94622.06
2023-03-29T23:52:00.380Z,94626.94
2023-03-29T23:54:26.786Z,94620.06
2023-03-29T23:56:53.258Z,94625.94
2023-03-29T23:59:19.645Z,94626.94
